WAT54 KSEZ-KSOW
Flight info
| Callsign | WAT54 |
|---|---|
| Flight time | N/A |
| Altitude | 21000 |
| Route | JESSE |
| Aircraft | B738/M-SDE2E3FGHIRWXY/LB1 |
Departure
| Time | N/A |
|---|---|
| Airport | Sedona Airport (KSEZ) |
Arrival
| Time | 2026-04-22 14:08 |
|---|---|
| Airport | Show Low Regional Airport (KSOW) |
| Time | Latitude | Longitude | Altitude | Speed | Heading |
|---|---|---|---|---|---|
| 2026-04-22 13:39 | 34.55720 | -110.88397 | 13012 ft | 418 kts | 110° |
| 2026-04-22 13:39 | 34.55021 | -110.84973 | 13030 ft | 418 kts | 107° |
| 2026-04-22 13:39 | 34.54334 | -110.81550 | 13019 ft | 418 kts | 108° |
| 2026-04-22 13:39 | 34.53629 | -110.78125 | 13009 ft | 418 kts | 108° |
| 2026-04-22 13:40 | 34.52908 | -110.74710 | 13011 ft | 418 kts | 109° |
| 2026-04-22 13:40 | 34.52180 | -110.71307 | 13021 ft | 417 kts | 109° |
| 2026-04-22 13:40 | 34.51448 | -110.67908 | 13033 ft | 416 kts | 109° |
| 2026-04-22 13:40 | 34.50717 | -110.64518 | 13021 ft | 415 kts | 109° |
| 2026-04-22 13:41 | 34.49987 | -110.61137 | 13026 ft | 414 kts | 109° |
| 2026-04-22 13:41 | 34.49257 | -110.57762 | 13039 ft | 414 kts | 109° |
| 2026-04-22 13:41 | 34.48685 | -110.54329 | 13018 ft | 420 kts | 97° |
| 2026-04-22 13:41 | 34.48800 | -110.50778 | 13053 ft | 424 kts | 87° |
| 2026-04-22 13:42 | 34.49155 | -110.47231 | 13027 ft | 424 kts | 85° |
| 2026-04-22 13:42 | 34.49555 | -110.43682 | 13041 ft | 425 kts | 85° |
| 2026-04-22 13:42 | 34.49971 | -110.40126 | 13054 ft | 426 kts | 84° |
| 2026-04-22 13:42 | 34.50388 | -110.36575 | 13049 ft | 426 kts | 84° |
| 2026-04-22 13:43 | 34.50809 | -110.33021 | 13050 ft | 425 kts | 84° |
| 2026-04-22 13:43 | 34.51231 | -110.29473 | 13052 ft | 425 kts | 84° |
| 2026-04-22 13:43 | 34.51656 | -110.25930 | 13051 ft | 424 kts | 84° |
| 2026-04-22 13:43 | 34.52085 | -110.22391 | 13052 ft | 424 kts | 84° |
| 2026-04-22 13:44 | 34.52514 | -110.18850 | 13055 ft | 425 kts | 84° |
| 2026-04-22 13:44 | 34.52944 | -110.15307 | 13053 ft | 424 kts | 84° |
| 2026-04-22 13:44 | 34.53375 | -110.11769 | 13062 ft | 424 kts | 84° |
| 2026-04-22 13:44 | 34.53807 | -110.08235 | 13057 ft | 424 kts | 84° |
| 2026-04-22 13:45 | 34.54240 | -110.04699 | 13064 ft | 424 kts | 84° |
| 2026-04-22 13:45 | 34.54676 | -110.01157 | 13059 ft | 425 kts | 84° |
| 2026-04-22 13:45 | 34.55110 | -109.97617 | 13053 ft | 424 kts | 84° |
| 2026-04-22 13:45 | 34.55541 | -109.94074 | 13057 ft | 423 kts | 84° |
| 2026-04-22 13:46 | 34.55962 | -109.90596 | 13054 ft | 422 kts | 84° |
| 2026-04-22 13:46 | 34.56389 | -109.87072 | 13050 ft | 422 kts | 84° |
| 2026-04-22 13:46 | 34.56818 | -109.83550 | 13048 ft | 422 kts | 84° |
| 2026-04-22 13:46 | 34.57243 | -109.80030 | 13049 ft | 422 kts | 84° |
| 2026-04-22 13:47 | 34.57668 | -109.76507 | 13049 ft | 422 kts | 84° |
| 2026-04-22 13:47 | 34.58092 | -109.72987 | 13037 ft | 419 kts | 84° |
| 2026-04-22 13:47 | 34.58457 | -109.69555 | 12979 ft | 401 kts | 90° |
| 2026-04-22 13:47 | 34.58159 | -109.66310 | 12850 ft | 374 kts | 111° |
| 2026-04-22 13:48 | 34.57068 | -109.63627 | 12696 ft | 339 kts | 133° |
| 2026-04-22 13:48 | 34.55453 | -109.61709 | 12613 ft | 316 kts | 147° |
| 2026-04-22 13:48 | 34.53762 | -109.60097 | 12558 ft | 303 kts | 148° |
| 2026-04-22 13:48 | 34.52122 | -109.58570 | 12467 ft | 292 kts | 148° |
| 2026-04-22 13:49 | 34.50538 | -109.57098 | 12400 ft | 282 kts | 149° |
| 2026-04-22 13:49 | 34.49020 | -109.55681 | 12300 ft | 268 kts | 149° |
| 2026-04-22 13:49 | 34.47593 | -109.54329 | 12195 ft | 253 kts | 149° |
| 2026-04-22 13:49 | 34.46184 | -109.53132 | 11905 ft | 240 kts | 163° |
| 2026-04-22 13:50 | 34.45121 | -109.52806 | 11606 ft | 231 kts | 184° |
| 2026-04-22 13:50 | 34.43601 | -109.53245 | 11183 ft | 226 kts | 214° |
| 2026-04-22 13:50 | 34.42525 | -109.54594 | 10890 ft | 224 kts | 236° |
| 2026-04-22 13:50 | 34.41711 | -109.56222 | 10526 ft | 229 kts | 238° |
| 2026-04-22 13:51 | 34.40902 | -109.57907 | 10175 ft | 232 kts | 239° |
| 2026-04-22 13:51 | 34.40089 | -109.59603 | 9876 ft | 233 kts | 239° |
| 2026-04-22 13:51 | 34.39273 | -109.61303 | 9750 ft | 235 kts | 239° |
| 2026-04-22 13:51 | 34.38441 | -109.63023 | 9724 ft | 238 kts | 239° |
| 2026-04-22 13:52 | 34.37606 | -109.64753 | 9701 ft | 236 kts | 239° |
| 2026-04-22 13:52 | 34.36793 | -109.66436 | 9696 ft | 234 kts | 239° |
| 2026-04-22 13:52 | 34.35972 | -109.68133 | 9709 ft | 234 kts | 239° |
| 2026-04-22 13:52 | 34.35153 | -109.69830 | 9713 ft | 234 kts | 239° |
| 2026-04-22 13:53 | 34.34331 | -109.71536 | 9709 ft | 235 kts | 239° |
| 2026-04-22 13:53 | 34.33510 | -109.73241 | 9714 ft | 235 kts | 239° |
| 2026-04-22 13:53 | 34.32689 | -109.74949 | 9710 ft | 235 kts | 239° |
| 2026-04-22 13:53 | 34.31868 | -109.76654 | 9715 ft | 235 kts | 239° |
| 2026-04-22 13:54 | 34.31248 | -109.78472 | 9723 ft | 234 kts | 255° |
| 2026-04-22 13:54 | 34.30857 | -109.80394 | 9609 ft | 239 kts | 253° |
| 2026-04-22 13:54 | 34.30434 | -109.82377 | 9301 ft | 245 kts | 255° |
| 2026-04-22 13:54 | 34.30015 | -109.84387 | 8972 ft | 248 kts | 255° |
| 2026-04-22 13:55 | 34.29592 | -109.86415 | 8646 ft | 249 kts | 255° |
| 2026-04-22 13:55 | 34.29169 | -109.88440 | 8330 ft | 246 kts | 255° |
| 2026-04-22 13:55 | 34.28755 | -109.90428 | 7995 ft | 241 kts | 254° |
| 2026-04-22 13:55 | 34.28352 | -109.92369 | 7700 ft | 235 kts | 253° |
| 2026-04-22 13:56 | 34.27959 | -109.94261 | 7364 ft | 227 kts | 253° |
| 2026-04-22 13:56 | 34.27580 | -109.96079 | 7083 ft | 219 kts | 253° |
| 2026-04-22 13:56 | 34.27224 | -109.97816 | 6774 ft | 207 kts | 255° |
| 2026-04-22 13:56 | 34.26905 | -109.99462 | 6465 ft | 199 kts | 253° |
| 2026-04-22 13:57 | 34.26556 | -110.01137 | 7004 ft | 215 kts | 255° |
| 2026-04-22 13:57 | 34.26192 | -110.03017 | 7229 ft | 241 kts | 255° |
| 2026-04-22 13:57 | 34.25641 | -110.04973 | 7512 ft | 248 kts | 238° |
| 2026-04-22 13:57 | 34.24561 | -110.06533 | 7816 ft | 237 kts | 218° |
| 2026-04-22 13:58 | 34.23161 | -110.07565 | 7724 ft | 235 kts | 198° |
| 2026-04-22 13:58 | 34.21555 | -110.07909 | 7483 ft | 239 kts | 182° |
| 2026-04-22 13:58 | 34.19799 | -110.07791 | 6977 ft | 277 kts | 172° |
| 2026-04-22 13:58 | 34.18080 | -110.06978 | 8052 ft | 267 kts | 141° |
| 2026-04-22 13:59 | 34.16978 | -110.05027 | 8436 ft | 289 kts | 109° |
| 2026-04-22 13:59 | 34.16674 | -110.02635 | 8530 ft | 291 kts | 88° |
| 2026-04-22 13:59 | 34.16864 | -110.00248 | 8654 ft | 281 kts | 85° |
| 2026-04-22 13:59 | 34.17059 | -109.97942 | 8736 ft | 273 kts | 85° |
| 2026-04-22 14:00 | 34.17314 | -109.95685 | 8807 ft | 271 kts | 78° |
| 2026-04-22 14:00 | 34.17632 | -109.93441 | 8900 ft | 273 kts | 80° |
| 2026-04-22 14:00 | 34.18076 | -109.91209 | 8995 ft | 274 kts | 76° |
| 2026-04-22 14:00 | 34.18573 | -109.88986 | 9082 ft | 275 kts | 75° |
| 2026-04-22 14:01 | 34.19078 | -109.86766 | 9284 ft | 275 kts | 75° |
| 2026-04-22 14:01 | 34.19604 | -109.84488 | 9505 ft | 294 kts | 75° |
| 2026-04-22 14:01 | 34.20166 | -109.82069 | 9697 ft | 301 kts | 75° |
| 2026-04-22 14:01 | 34.20743 | -109.79614 | 9715 ft | 306 kts | 75° |
| 2026-04-22 14:02 | 34.21322 | -109.77144 | 9724 ft | 304 kts | 75° |
| 2026-04-22 14:02 | 34.21935 | -109.74764 | 9700 ft | 296 kts | 65° |
| 2026-04-22 14:02 | 34.23225 | -109.72952 | 9733 ft | 279 kts | 30° |
| 2026-04-22 14:02 | 34.24985 | -109.72348 | 9717 ft | 254 kts | 355° |
| 2026-04-22 14:03 | 34.26607 | -109.72820 | 9686 ft | 230 kts | 323° |
| 2026-04-22 14:03 | 34.27514 | -109.74224 | 9715 ft | 209 kts | 281° |
| 2026-04-22 14:03 | 34.27563 | -109.75941 | 9745 ft | 205 kts | 271° |
| 2026-04-22 14:03 | 34.27992 | -109.77606 | 9748 ft | 209 kts | 289° |
| 2026-04-22 14:04 | 34.28490 | -109.79248 | 9571 ft | 207 kts | 285° |
| 2026-04-22 14:04 | 34.28924 | -109.80860 | 9353 ft | 196 kts | 285° |
| 2026-04-22 14:04 | 34.29330 | -109.82403 | 9135 ft | 190 kts | 285° |
| 2026-04-22 14:04 | 34.29723 | -109.83918 | 8934 ft | 187 kts | 284° |
| 2026-04-22 14:05 | 34.29764 | -109.85445 | 8722 ft | 181 kts | 254° |
| 2026-04-22 14:05 | 34.29463 | -109.86914 | 8577 ft | 182 kts | 256° |
| 2026-04-22 14:05 | 34.28869 | -109.89888 | 8088 ft | 179 kts | 254° |
| 2026-04-22 14:06 | 34.28569 | -109.91327 | 7866 ft | 177 kts | 253° |
| 2026-04-22 14:06 | 34.28268 | -109.92772 | 7659 ft | 176 kts | 253° |
| 2026-04-22 14:06 | 34.28007 | -109.94171 | 7483 ft | 167 kts | 255° |
| 2026-04-22 14:06 | 34.27726 | -109.95519 | 7079 ft | 168 kts | 250° |
| 2026-04-22 14:07 | 34.27384 | -109.96891 | 6840 ft | 170 kts | 252° |
| 2026-04-22 14:07 | 34.27109 | -109.98256 | 6620 ft | 167 kts | 255° |
| 2026-04-22 14:07 | 34.26844 | -109.99622 | 6440 ft | 165 kts | 253° |
| 2026-04-22 14:07 | 34.26584 | -110.00859 | 6415 ft | 136 kts | 251° |
| 2026-04-22 14:08 | 34.26453 | -110.01502 | 6415 ft | 0 kts | 247° |
| 2026-04-22 14:08 | 34.26418 | -110.01539 | 6414 ft | 11 kts | 188° |
| 2026-04-22 14:08 | 34.26350 | -110.01484 | 6415 ft | 13 kts | 90° |
| 2026-04-22 14:08 | 34.26376 | -110.01365 | 6417 ft | 18 kts | 76° |
| 2026-04-22 14:09 | 34.26417 | -110.01174 | 6414 ft | 24 kts | 76° |
| 2026-04-22 14:09 | 34.26453 | -110.00983 | 6414 ft | 21 kts | 76° |
| 2026-04-22 14:09 | 34.26472 | -110.00848 | 6415 ft | 10 kts | 122° |
| 2026-04-22 14:09 | 34.26457 | -110.00739 | 6414 ft | 23 kts | 85° |
| 2026-04-22 14:10 | 34.26470 | -110.00669 | 6415 ft | 0 kts | 73° |